Time;durP1;ratioP1;P1;durP2;ratioP2;P2;SDS_P1;SDS_P2;PMS_P1;PMS_P2;Temp;Humidity;BMP_temperature;BMP_pressure;BME280_temperature;BME280_humidity;BME280_pressure;Samples;Min_cycle;Max_cycle;Signal;HPM_P1;HPM_P2
2022/01/28 00:04:49;;;;;;;13.40;3.38;;;5.80;99.90;;;;;;5053594;28;20049;-71
2022/01/28 00:07:14;;;;;;;19.45;5.00;;;5.70;99.90;;;;;;5036514;28;20115;-71
2022/01/28 00:09:40;;;;;;;19.75;5.07;;;;;;;;;;5053243;28;20148;-71
2022/01/28 00:12:10;;;;;;;23.23;4.30;;;;;;;;;;5052937;28;20045;-71
2022/01/28 00:20:50;;;;;;;16.13;3.17;;;;;;;;;;5052850;28;20045;-71
2022/01/28 00:36:31;;;;;;;30.98;3.75;;;;;;;;;;5053010;28;20148;-71
2022/01/28 00:36:58;;;;;;;26.42;4.50;;;;;;;;;;5052360;28;20529;-71
2022/01/28 00:39:24;;;;;;;26.65;5.50;;;;;;;;;;5035653;28;20128;-72
2022/01/28 00:41:50;;;;;;;25.88;3.90;;;;;;;;;;5052803;28;20036;-71
2022/01/28 00:44:16;;;;;;;22.90;3.90;;;;;;;;;;5052506;28;20038;-71
2022/01/28 00:46:41;;;;;;;31.40;5.28;;;5.80;99.90;;;;;;5052816;28;20048;-71
2022/01/28 00:49:07;;;;;;;26.83;4.45;;;;;;;;;;5052004;28;20045;-71
2022/01/28 00:51:33;;;;;;;20.10;3.88;;;5.80;99.90;;;;;;5049640;28;20045;-71
2022/01/28 00:53:59;;;;;;;17.48;3.05;;;;;;;;;;5051919;28;20491;-71
2022/01/28 00:56:25;;;;;;;14.30;3.08;;;;;;;;;;5052437;28;20552;-71
2022/01/28 00:58:51;;;;;;;11.88;3.58;;;;;;;;;;5052464;28;20111;-71
2022/01/28 01:01:17;;;;;;;10.60;2.08;;;;;;;;;;5052198;28;20032;-71
2022/01/28 01:03:43;;;;;;;15.88;3.58;;;;;;;;;;5051897;28;20069;-71
2022/01/28 01:06:09;;;;;;;14.02;2.42;;;;;;;;;;5052014;28;20523;-71
2022/01/28 01:08:36;;;;;;;18.88;4.20;;;;;;;;;;5074382;22;20045;-68
2022/01/28 01:11:02;;;;;;;12.05;2.60;;;5.80;99.90;;;;;;5050598;28;20045;-68
2022/01/28 01:13:28;;;;;;;20.20;3.55;;;;;;;;;;5051566;28;20045;-68
2022/01/28 01:15:55;;;;;;;18.00;3.85;;;;;;;;;;5051923;28;20049;-68
2022/01/28 01:18:31;;;;;;;21.58;4.22;;;;;;;;;;5051831;28;20545;-69
2022/01/28 01:21:03;;;;;;;24.42;3.97;;;5.60;99.90;;;;;;5051456;28;20411;-69
2022/01/28 01:23:33;;;;;;;15.13;3.13;;;5.60;99.90;;;;;;5035111;28;20033;-68
2022/01/28 01:26:09;;;;;;;21.00;4.78;;;5.70;99.90;;;;;;5051787;28;20058;-68
2022/01/28 01:28:37;;;;;;;20.80;4.25;;;5.60;99.90;;;;;;5051494;28;20119;-68
2022/01/28 01:31:05;;;;;;;25.55;4.07;;;;;;;;;;5051123;28;20124;-69
2022/01/28 01:33:36;;;;;;;16.85;3.83;;;;;;;;;;5035005;28;20438;-69
2022/01/28 01:36:03;;;;;;;19.80;3.45;;;;;;;;;;5034899;28;20090;-68
2022/01/28 01:38:33;;;;;;;20.75;4.22;;;;;;;;;;5051319;28;20037;-69
2022/01/28 01:41:02;;;;;;;19.73;3.33;;;5.50;99.90;;;;;;5051000;28;20048;-70
2022/01/28 01:43:51;;;;;;;25.52;3.97;;;;;;;;;;5051361;28;20099;-68
2022/01/28 01:46:35;;;;;;;19.70;3.30;;;;;;;;;;5043203;28;20406;-69
2022/01/28 01:54:26;;;;;;;21.58;3.88;;;5.50;99.90;;;;;;5030805;28;20049;-68
2022/01/28 01:56:54;;;;;;;25.10;3.78;;;;;;;;;;5030986;28;20522;-68
2022/01/28 01:59:20;;;;;;;24.20;3.65;;;;;;;;;;5030055;28;20041;-68
2022/01/28 02:01:45;;;;;;;31.92;5.20;;;5.40;99.90;;;;;;5031050;28;20341;-68
2022/01/28 02:04:11;;;;;;;20.50;3.50;;;;;;;;;;5030901;28;20033;-68
2022/01/28 02:06:38;;;;;;;22.85;3.83;;;5.40;99.90;;;;;;5030859;28;20045;-68
2022/01/28 02:09:08;;;;;;;22.25;4.00;;;;;;;;;;5030315;28;20110;-68
2022/01/28 02:11:34;;;;;;;24.50;4.10;;;;;;;;;;5019370;28;20049;-68
2022/01/28 02:14:00;;;;;;;33.72;6.55;;;5.60;99.90;;;;;;5050984;28;20398;-68
2022/01/28 02:16:25;;;;;;;30.02;4.35;;;5.60;99.90;;;;;;5051047;28;20032;-68
2022/01/28 02:18:55;;;;;;;19.77;3.50;;;;;;;;;;5050284;28;20160;-70
2022/01/28 02:21:21;;;;;;;23.48;4.93;;;;;;;;;;5050291;28;20255;-68
2022/01/28 02:23:51;;;;;;;16.35;3.75;;;5.50;99.90;;;;;;5049919;28;20047;-68
2022/01/28 02:26:17;;;;;;;21.65;4.20;;;;;;;;;;5050628;28;20533;-69
2022/01/28 02:28:47;;;;;;;26.17;5.03;;;5.60;99.90;;;;;;5050436;28;20051;-67
2022/01/28 02:31:18;;;;;;;25.58;3.55;;;;;;;;;;5049890;28;20507;-67
2022/01/28 02:33:45;;;;;;;24.05;4.15;;;;;;;;;;5050350;28;20099;-68
2022/01/28 02:36:11;;;;;;;24.83;3.97;;;5.50;99.90;;;;;;5050301;28;20094;-68
2022/01/28 02:38:37;;;;;;;24.85;3.67;;;;;;;;;;5050176;28;20468;-68
2022/01/28 02:41:04;;;;;;;30.83;5.53;;;;;;;;;;5050202;28;20083;-68
2022/01/28 02:46:04;;;;;;;28.08;5.30;;;;;;;;;;5050263;28;20077;-68
2022/01/28 02:48:31;;;;;;;33.88;4.75;;;;;;;;;;5050391;28;20041;-68
2022/01/28 02:51:09;;;;;;;30.20;6.15;;;5.80;99.90;;;;;;5044218;28;20083;-68
2022/01/28 02:53:40;;;;;;;20.40;3.85;;;5.80;99.90;;;;;;5025463;28;20122;-68
2022/01/28 02:56:19;;;;;;;34.65;5.68;;;5.80;99.90;;;;;;5030187;28;20116;-68
2022/01/28 02:58:46;;;;;;;24.50;4.75;;;5.70;99.90;;;;;;5030094;28;20062;-68
2022/01/28 03:01:13;;;;;;;29.95;4.30;;;;;;;;;;5029768;28;20045;-68
2022/01/28 03:03:40;;;;;;;25.60;5.20;;;;;;;;;;5030104;28;20080;-67
2022/01/28 03:06:06;;;;;;;20.15;4.60;;;5.90;99.90;;;;;;5031292;28;20088;-68
2022/01/28 03:08:33;;;;;;;27.58;5.28;;;;;;;;;;5013076;28;20073;-68
2022/01/28 03:13:35;;;;;;;29.98;5.32;;;;;;;;;;5049955;28;20045;-68
2022/01/28 03:16:14;;;;;;;34.72;5.00;;;;;;;;;;5049616;28;20044;-67
2022/01/28 03:18:56;;;;;;;27.52;4.63;;;;;;;;;;5049733;28;20064;-70
2022/01/28 03:23:52;;;;;;;26.30;4.35;;;5.60;99.90;;;;;;5049687;28;20037;-67
2022/01/28 03:26:18;;;;;;;28.20;5.53;;;;;;;;;;5049607;28;20092;-67
2022/01/28 03:28:44;;;;;;;18.58;4.03;;;;;;;;;;5049504;28;20045;-68
2022/01/28 03:31:11;;;;;;;25.88;5.38;;;;;;;;;;5049506;28;20098;-67
2022/01/28 03:33:37;;;;;;;33.85;5.28;;;;;;;;;;5034025;28;20327;-68
2022/01/28 03:36:06;;;;;;;28.05;4.90;;;;;;;;;;5053564;28;20037;-68
2022/01/28 03:38:32;;;;;;;19.80;4.07;;;;;;;;;;5053367;28;20052;-69
2022/01/28 03:40:58;;;;;;;30.35;6.72;;;5.50;99.90;;;;;;5036703;28;20072;-68
2022/01/28 03:43:24;;;;;;;28.75;4.72;;;;;;;;;;5053487;28;20077;-68
2022/01/28 03:45:50;;;;;;;26.20;5.05;;;;;;;;;;5053473;28;20048;-68
2022/01/28 03:48:16;;;;;;;31.10;5.32;;;;;;;;;;5053534;28;20040;-69
2022/01/28 03:50:42;;;;;;;22.83;4.80;;;;;;;;;;5048816;28;20084;-68
2022/01/28 03:53:08;;;;;;;31.60;4.50;;;5.40;99.90;;;;;;5033204;28;20049;-68
2022/01/28 03:55:35;;;;;;;25.83;5.35;;;5.40;99.90;;;;;;5033423;28;20045;-68
2022/01/28 03:58:01;;;;;;;27.85;5.85;;;5.50;99.90;;;;;;5033277;28;20041;-68
2022/01/28 04:00:30;;;;;;;23.75;4.32;;;;;;;;;;5034512;28;20030;-68
2022/01/28 04:03:08;;;;;;;23.08;4.75;;;;;;;;;;5033430;28;20229;-68
2022/01/28 04:13:33;;;;;;;23.27;5.15;;;;;;;;;;5013095;28;20057;-69
2022/01/28 04:18:25;;;;;;;29.13;5.07;;;;;;;;;;5013153;28;20112;-67
2022/01/28 04:20:51;;;;;;;28.23;4.93;;;;;;;;;;5012762;28;20034;-67
2022/01/28 04:23:18;;;;;;;25.88;4.95;;;;;;;;;;5013094;28;20037;-66
2022/01/28 04:25:44;;;;;;;27.75;4.38;;;5.90;99.90;;;;;;5014248;28;20120;-68
2022/01/28 04:28:09;;;;;;;33.55;5.18;;;5.70;99.90;;;;;;5012414;28;20131;-68
2022/01/28 04:30:35;;;;;;;22.95;4.03;;;;;;;;;;5012659;28;20472;-68
2022/01/28 04:33:01;;;;;;;24.23;5.40;;;;;;;;;;5013281;28;20037;-68
2022/01/28 04:35:27;;;;;;;28.20;5.72;;;;;;;;;;5012900;28;20082;-68
2022/01/28 04:38:09;;;;;;;25.42;5.65;;;;;;;;;;5012451;28;20530;-67
2022/01/28 04:40:44;;;;;;;26.50;5.22;;;;;;;;;;5013804;28;20353;-68
2022/01/28 04:43:19;;;;;;;31.83;4.82;;;;;;;;;;5012925;28;20457;-68
2022/01/28 04:46:02;;;;;;;28.60;4.68;;;;;;;;;;5012003;28;20045;-68
2022/01/28 04:48:36;;;;;;;24.13;4.68;;;5.90;99.90;;;;;;4996154;28;20046;-68
2022/01/28 04:51:14;;;;;;;25.58;4.63;;;;;;;;;;5016404;28;20046;-68
2022/01/28 04:54:02;;;;;;;29.15;5.55;;;;;;;;;;5013979;28;20120;-67
2022/01/28 05:23:24;;;;;;;26.50;4.55;;;;;;;;;;5051611;28;20123;-67
2022/01/28 05:28:36;;;;;;;30.00;6.20;;;;;;;;;;5052529;28;20487;-68
2022/01/28 05:31:02;;;;;;;20.00;4.93;;;;;;;;;;5051007;28;20076;-67
2022/01/28 05:33:28;;;;;;;29.92;5.93;;;;;;;;;;5052948;28;20061;-68
2022/01/28 05:35:54;;;;;;;26.58;4.63;;;;;;;;;;5051373;28;20044;-68
2022/01/28 05:38:20;;;;;;;25.38;5.05;;;;;;;;;;5052524;28;20045;-68
2022/01/28 05:40:46;;;;;;;25.52;4.45;;;;;;;;;;5051265;28;20076;-67
2022/01/28 05:43:12;;;;;;;19.55;4.05;;;;;;;;;;5052350;28;20033;-68
2022/01/28 05:45:38;;;;;;;25.38;5.22;;;;;;;;;;5050970;28;20044;-67
2022/01/28 05:48:04;;;;;;;27.05;6.07;;;;;;;;;;5050555;28;20060;-69
2022/01/28 05:50:30;;;;;;;23.88;4.80;;;;;;;;;;5048377;28;20048;-68
2022/01/28 05:52:56;;;;;;;21.45;4.65;;;;;;;;;;5032231;28;20030;-69
2022/01/28 05:55:22;;;;;;;20.00;5.40;;;;;;;;;;5031727;28;20128;-68
2022/01/28 05:57:47;;;;;;;22.90;5.32;;;5.40;99.90;;;;;;5030034;28;20049;-68
2022/01/28 06:00:14;;;;;;;20.38;5.18;;;5.40;99.90;;;;;;5031769;28;20096;-67
2022/01/28 06:02:40;;;;;;;31.52;5.65;;;;;;;;;;5030779;28;20041;-67
2022/01/28 06:05:07;;;;;;;26.65;5.25;;;;;;;;;;5030548;28;20179;-68
2022/01/28 06:07:33;;;;;;;26.90;5.90;;;;;;;;;;5031913;28;20530;-67
2022/01/28 06:09:58;;;;;;;43.67;7.10;;;;;;;;;;5029405;28;20132;-67
2022/01/28 06:12:24;;;;;;;26.42;5.68;;;;;;;;;;5031091;28;20132;-67
2022/01/28 06:14:50;;;;;;;23.13;5.93;;;;;;;;;;5030698;28;20053;-68
2022/01/28 06:17:16;;;;;;;27.17;5.30;;;;;;;;;;5030475;28;20042;-67
2022/01/28 06:19:42;;;;;;;23.25;5.20;;;;;;;;;;5030264;28;20073;-68
2022/01/28 06:22:08;;;;;;;17.55;5.95;;;;;;;;;;5030708;28;20070;-68
2022/01/28 06:24:34;;;;;;;31.50;5.20;;;;;;;;;;5030671;28;20041;-68
2022/01/28 06:27:00;;;;;;;19.80;4.43;;;;;;;;;;5030649;28;20122;-68
2022/01/28 06:29:26;;;;;;;26.23;4.68;;;;;;;;;;5029791;28;20461;-68
2022/01/28 06:31:52;;;;;;;13.88;3.63;;;;;;;;;;5030420;28;20521;-68
2022/01/28 06:34:18;;;;;;;23.40;4.72;;;;;;;;;;5030464;28;20495;-68
2022/01/28 06:36:43;;;;;;;37.28;6.45;;;5.00;99.90;;;;;;5030367;28;20392;-68
2022/01/28 06:39:09;;;;;;;31.17;5.07;;;;;;;;;;5030088;28;20037;-68
2022/01/28 06:41:35;;;;;;;28.10;5.30;;;;;;;;;;5030282;28;20124;-67
2022/01/28 06:44:01;;;;;;;30.23;4.93;;;;;;;;;;5030266;28;20037;-68
2022/01/28 06:46:27;;;;;;;22.55;5.82;;;5.00;99.90;;;;;;5030159;28;20510;-67
2022/01/28 06:48:53;;;;;;;20.25;5.18;;;;;;;;;;5030022;28;20233;-69
2022/01/28 06:51:19;;;;;;;26.13;5.03;;;;;;;;;;5028818;28;20412;-68
2022/01/28 06:53:45;;;;;;;16.75;3.47;;;;;;;;;;5030282;28;20045;-67
2022/01/28 06:56:11;;;;;;;27.02;5.30;;;;;;;;;;5030164;28;20046;-69
2022/01/28 06:58:37;;;;;;;28.80;6.90;;;;;;;;;;5029909;28;20124;-68
2022/01/28 07:01:03;;;;;;;22.65;6.60;;;;;;;;;;5030064;28;20045;-68
2022/01/28 07:03:29;;;;;;;40.70;7.25;;;;;;;;;;5029976;28;20077;-67
2022/01/28 07:05:55;;;;;;;27.80;6.22;;;;;;;;;;5029473;28;20041;-68
2022/01/28 07:10:57;;;;;;;27.27;4.35;;;;;;;;;;5028334;28;20049;-71
2022/01/28 07:13:23;;;;;;;27.92;4.80;;;;;;;;;;5009921;28;20426;-70
2022/01/28 07:15:51;;;;;;;27.70;5.30;;;;;;;;;;4994004;28;20038;-71
2022/01/28 07:18:17;;;;;;;27.38;6.10;;;;;;;;;;4994368;28;20041;-71
2022/01/28 07:20:43;;;;;;;31.67;5.68;;;;;;;;;;4990646;28;20042;-70
2022/01/28 07:23:09;;;;;;;24.65;4.13;;;;;;;;;;4991107;28;20052;-71
2022/01/28 07:25:35;;;;;;;26.05;5.95;;;;;;;;;;4990975;28;20400;-71
2022/01/28 07:28:01;;;;;;;22.00;6.40;;;;;;;;;;4990922;28;20050;-71
2022/01/28 07:30:27;;;;;;;28.60;5.13;;;;;;;;;;4994630;28;20507;-72
2022/01/28 07:32:53;;;;;;;21.40;3.95;;;;;;;;;;4994700;28;20041;-71
2022/01/28 07:35:19;;;;;;;26.70;4.20;;;;;;;;;;5009924;28;20037;-70
2022/01/28 07:37:45;;;;;;;31.75;4.85;;;;;;;;;;5001851;28;20513;-70
2022/01/28 07:40:12;;;;;;;24.60;3.80;;;;;;;;;;5010285;28;20049;-70
2022/01/28 07:42:38;;;;;;;18.75;3.83;;;;;;;;;;5010587;28;20459;-71
2022/01/28 07:45:05;;;;;;;24.67;4.32;;;;;;;;;;5010471;28;20081;-72
2022/01/28 07:47:31;;;;;;;21.73;4.38;;;;;;;;;;4999231;28;20077;-73
2022/01/28 07:49:57;;;;;;;28.42;4.13;;;;;;;;;;5009569;28;20055;-76
2022/01/28 07:52:23;;;;;;;21.20;4.18;;;;;;;;;;5011241;28;20450;-70
2022/01/28 07:54:50;;;;;;;27.13;3.92;;;;;;;;;;5019247;28;20072;-70
2022/01/28 07:57:16;;;;;;;23.23;3.97;;;;;;;;;;5017349;28;20052;-70
2022/01/28 07:59:42;;;;;;;27.25;3.88;;;;;;;;;;5051372;28;20116;-72
2022/01/28 08:02:09;;;;;;;21.38;4.65;;;;;;;;;;5050522;28;20499;-71
2022/01/28 08:04:35;;;;;;;18.48;4.13;;;;;;;;;;5013192;28;20056;-68
2022/01/28 08:07:01;;;;;;;26.33;3.75;;;;;;;;;;5013556;28;20056;-71
2022/01/28 08:09:27;;;;;;;30.30;5.03;;;;;;;;;;5012869;28;20042;-69
2022/01/28 08:11:53;;;;;;;23.33;5.22;;;;;;;;;;5016730;28;20136;-69
2022/01/28 08:14:19;;;;;;;22.30;4.13;;;;;;;;;;5046572;28;20049;-71
2022/01/28 08:16:44;;;;;;;23.77;3.95;;;4.60;99.90;;;;;;5046293;28;20044;-70
2022/01/28 08:19:10;;;;;;;29.48;5.00;;;;;;;;;;5012787;28;20088;-70
2022/01/28 08:21:36;;;;;;;25.05;4.88;;;4.40;99.90;;;;;;5032011;28;20041;-70
2022/01/28 08:24:02;;;;;;;22.60;4.78;;;;;;;;;;5034583;28;20483;-72
2022/01/28 08:26:28;;;;;;;19.35;4.25;;;;;;;;;;5032873;28;20033;-70
2022/01/28 08:28:53;;;;;;;24.25;4.93;;;4.70;99.90;;;;;;5049411;28;20033;-70
2022/01/28 08:31:19;;;;;;;24.38;4.55;;;4.70;99.90;;;;;;5016355;28;20056;-70
2022/01/28 08:33:45;;;;;;;35.88;4.47;;;;;;;;;;5032911;28;20045;-70
2022/01/28 08:36:11;;;;;;;31.23;5.40;;;;;;;;;;5016553;28;20414;-73
2022/01/28 08:38:49;;;;;;;23.40;3.92;;;4.80;99.90;;;;;;5018685;28;20076;-69
2022/01/28 08:41:15;;;;;;;16.38;3.47;;;4.60;99.90;;;;;;5016481;28;20041;-69
2022/01/28 08:43:41;;;;;;;19.90;4.00;;;;;;;;;;4998633;28;20033;-69
2022/01/28 08:46:07;;;;;;;22.17;4.10;;;;;;;;;;4999498;28;20525;-69
2022/01/28 08:48:33;;;;;;;31.63;4.85;;;;;;;;;;5034061;28;20324;-69
2022/01/28 08:50:59;;;;;;;26.05;4.68;;;;;;;;;;5016244;28;20037;-69
2022/01/28 08:53:25;;;;;;;23.38;4.25;;;5.00;99.90;;;;;;5034188;28;20495;-69
2022/01/28 08:55:50;;;;;;;19.25;4.28;;;5.10;99.90;;;;;;5016151;28;20041;-69
2022/01/28 08:58:16;;;;;;;31.70;4.68;;;5.10;99.90;;;;;;5016137;28;20107;-69
2022/01/28 09:00:45;;;;;;;25.48;4.25;;;;;;;;;;5033461;28;20030;-69
2022/01/28 09:03:12;;;;;;;20.45;4.65;;;;;;;;;;5016061;28;20049;-69
2022/01/28 09:05:38;;;;;;;24.77;4.75;;;;;;;;;;5033827;28;20069;-72
2022/01/28 09:08:09;;;;;;;18.05;3.75;;;;;;;;;;5016008;28;20135;-70
2022/01/28 09:10:45;;;;;;;22.23;4.30;;;5.50;99.90;;;;;;5015767;28;20087;-70
2022/01/28 09:13:22;;;;;;;24.73;4.40;;;;;;;;;;5015913;28;20048;-69
2022/01/28 09:15:49;;;;;;;19.60;4.45;;;;;;;;;;4999402;28;20048;-70
2022/01/28 09:18:15;;;;;;;28.00;5.00;;;;;;;;;;5015820;28;20109;-69
2022/01/28 09:20:41;;;;;;;33.22;6.60;;;;;;;;;;5015433;28;20040;-71
2022/01/28 09:23:08;;;;;;;23.67;4.25;;;;;;;;;;5015884;28;20132;-70
2022/01/28 09:25:35;;;;;;;24.65;4.47;;;;;;;;;;5016048;28;20049;-78
2022/01/28 09:28:01;;;;;;;26.02;5.68;;;;;;;;;;4999294;28;20048;-73
2022/01/28 09:30:27;;;;;;;42.28;5.60;;;;;;;;;;5014809;28;20136;-70
2022/01/28 09:32:56;;;;;;;26.02;5.97;;;;;;;;;;5015368;28;20042;-69
2022/01/28 09:35:22;;;;;;;20.05;3.97;;;;;;;;;;5015718;28;20142;-72
2022/01/28 09:37:51;;;;;;;35.88;5.47;;;5.40;99.90;;;;;;5015342;28;20526;-70
2022/01/28 09:40:17;;;;;;;44.25;6.28;;;5.60;99.90;;;;;;5014953;28;20554;-71
2022/01/28 09:42:45;;;;;;;30.35;5.50;;;;;;;;;;4998873;28;20124;-71
2022/01/28 09:45:14;;;;;;;35.58;6.13;;;;;;;;;;5015488;28;20499;-71
2022/01/28 09:47:40;;;;;;;31.63;7.57;;;;;;;;;;4999020;28;20033;-70
2022/01/28 09:50:07;;;;;;;39.17;6.82;;;5.40;99.90;;;;;;5032664;28;20065;-71
2022/01/28 09:52:34;;;;;;;33.08;7.13;;;5.60;99.90;;;;;;5015135;28;20052;-71
2022/01/28 09:54:59;;;;;;;34.05;8.07;;;5.40;99.90;;;;;;5031595;28;20049;-70
2022/01/28 09:57:25;;;;;;;26.90;5.90;;;;;;;;;;4982659;28;20049;-71
2022/01/28 09:59:51;;;;;;;31.90;6.68;;;;;;;;;;5014772;28;20466;-72
2022/01/28 10:02:17;;;;;;;24.27;4.50;;;;;;;;;;5015899;28;20045;-71
2022/01/28 10:04:43;;;;;;;22.33;4.53;;;;;;;;;;5015408;28;20037;-71
2022/01/28 10:07:16;;;;;;;20.20;5.57;;;5.70;99.90;;;;;;5015181;28;20041;-70
2022/01/28 10:09:56;;;;;;;27.60;4.72;;;;;;;;;;5030836;28;20116;-70
2022/01/28 10:12:40;;;;;;;25.27;4.80;;;;;;;;;;4998385;28;20056;-72
2022/01/28 10:15:20;;;;;;;20.08;5.50;;;5.90;99.90;;;;;;5015069;28;20053;-71
2022/01/28 10:17:50;;;;;;;19.73;4.03;;;;;;;;;;5014663;28;20520;-71
2022/01/28 10:20:16;;;;;;;31.80;5.20;;;;;;;;;;5014210;28;20052;-72
2022/01/28 10:22:50;;;;;;;27.25;5.20;;;5.80;99.90;;;;;;5014602;28;20521;-71
2022/01/28 10:25:24;;;;;;;23.15;4.10;;;5.90;99.90;;;;;;4998280;28;20120;-71
2022/01/28 10:27:58;;;;;;;31.23;4.88;;;5.80;99.90;;;;;;5014514;28;20037;-72
2022/01/28 10:30:24;;;;;;;18.90;4.97;;;6.00;99.90;;;;;;5013580;28;20137;-71
2022/01/28 10:33:09;;;;;;;22.10;5.95;;;;;;;;;;4997761;28;20511;-71
2022/01/28 10:35:35;;;;;;;29.75;7.40;;;;;;;;;;4998170;28;20045;-70
2022/01/28 10:38:02;;;;;;;37.00;7.25;;;;;;;;;;5014331;28;20046;-73
2022/01/28 10:40:28;;;;;;;24.15;4.97;;;6.10;99.90;;;;;;5014127;28;20053;-71
2022/01/28 10:42:53;;;;;;;22.52;4.80;;;6.10;99.90;;;;;;4997457;28;20041;-71
2022/01/28 10:45:21;;;;;;;24.45;4.40;;;;;;;;;;5014161;28;20042;-71
2022/01/28 10:47:49;;;;;;;19.25;5.70;;;6.20;99.90;;;;;;4997731;28;20045;-70
2022/01/28 10:50:26;;;;;;;22.67;5.13;;;;;;;;;;5013845;28;20048;-71
2022/01/28 10:53:16;;;;;;;23.90;4.63;;;;;;;;;;5014452;28;20115;-71
2022/01/28 10:55:48;;;;;;;19.45;4.20;;;6.40;99.90;;;;;;5006898;28;20119;-71
2022/01/28 10:58:19;;;;;;;21.30;4.13;;;6.30;99.90;;;;;;5031807;28;20088;-71
2022/01/28 11:00:47;;;;;;;22.73;4.05;;;6.60;99.90;;;;;;4998735;28;20330;-72
2022/01/28 11:03:16;;;;;;;25.52;4.10;;;;;;;;;;5014066;28;20065;-72
2022/01/28 11:05:43;;;;;;;31.85;4.65;;;6.50;99.90;;;;;;5013839;28;20042;-71
2022/01/28 11:08:13;;;;;;;24.08;4.85;;;6.60;99.90;;;;;;5014038;28;20107;-71
2022/01/28 11:10:41;;;;;;;23.58;5.15;;;6.60;99.90;;;;;;5013759;28;20061;-72
2022/01/28 11:13:07;;;;;;;25.48;4.00;;;;;;;;;;5014136;28;20041;-72
2022/01/28 11:15:34;;;;;;;24.15;4.10;;;;;;;;;;5013969;28;20044;-71
2022/01/28 11:18:02;;;;;;;24.27;3.83;;;;;;;;;;5013415;28;20038;-71
2022/01/28 11:20:45;;;;;;;24.48;3.95;;;6.80;99.90;;;;;;5013052;28;20037;-71
2022/01/28 11:23:18;;;;;;;26.95;3.80;;;;;;;;;;4994913;28;20072;-72
2022/01/28 11:26:06;;;;;;;24.75;4.13;;;6.70;99.90;;;;;;5014163;28;20037;-71
2022/01/28 11:28:42;;;;;;;20.08;4.50;;;6.70;99.90;;;;;;5013682;28;20499;-71
2022/01/28 11:31:08;;;;;;;25.67;5.20;;;;;;;;;;5009179;28;20053;-71
2022/01/28 11:33:49;;;;;;;21.70;3.63;;;7.00;99.90;;;;;;5023153;28;20041;-70
2022/01/28 11:36:34;;;;;;;18.63;3.60;;;6.90;99.90;;;;;;4990964;28;20076;-71
2022/01/28 11:39:20;;;;;;;24.63;3.65;;;;;;;;;;4999313;28;20116;-71
2022/01/28 11:42:05;;;;;;;32.38;4.00;;;;;;;;;;4998720;28;20096;-72
2022/01/28 11:44:57;;;;;;;21.95;4.10;;;;;;;;;;4995039;28;20468;-72
2022/01/28 11:47:34;;;;;;;20.02;4.07;;;;;;;;;;4991945;28;20081;-70
2022/01/28 11:50:16;;;;;;;24.50;3.95;;;;;;;;;;5010011;28;20491;-71
2022/01/28 11:52:46;;;;;;;14.75;3.42;;;;;;;;;;5008716;28;20419;-72
2022/01/28 11:55:20;;;;;;;16.50;2.75;;;;;;;;;;5009028;28;20036;-72
2022/01/28 11:57:57;;;;;;;22.50;3.20;;;;;;;;;;5007905;28;20042;-72
2022/01/28 12:00:24;;;;;;;15.15;3.17;;;7.40;99.90;;;;;;4997122;28;20500;-72
2022/01/28 12:02:54;;;;;;;14.45;2.85;;;7.40;99.90;;;;;;5009930;28;20048;-72
2022/01/28 12:05:31;;;;;;;18.15;4.32;;;7.50;99.90;;;;;;5016797;28;20033;-70
2022/01/28 12:08:00;;;;;;;17.88;3.58;;;7.40;99.90;;;;;;5019555;28;20052;-73
2022/01/28 12:10:27;;;;;;;19.13;2.92;;;;;;;;;;4996671;28;20049;-71
2022/01/28 12:12:58;;;;;;;26.65;4.78;;;7.70;99.90;;;;;;5030922;28;20046;-73
2022/01/28 12:15:28;;;;;;;27.02;4.18;;;7.60;99.90;;;;;;5016166;28;20447;-72
2022/01/28 12:18:11;;;;;;;18.13;3.13;;;7.80;99.90;;;;;;5000203;28;20041;-72
2022/01/28 12:20:42;;;;;;;16.17;3.00;;;7.80;99.90;;;;;;5016626;28;20037;-72
2022/01/28 12:23:11;;;;;;;18.48;3.28;;;7.40;99.90;;;;;;5000407;28;20359;-70
2022/01/28 12:25:36;;;;;;;27.58;4.88;;;7.50;99.90;;;;;;5000535;28;20041;-70
2022/01/28 12:28:30;;;;;;;16.70;3.67;;;7.40;99.90;;;;;;5016391;28;20571;-72
2022/01/28 12:31:01;;;;;;;22.67;3.95;;;7.70;99.90;;;;;;5000224;28;20102;-71
2022/01/28 12:33:32;;;;;;;20.02;3.72;;;7.70;99.90;;;;;;5015787;28;20049;-72
2022/01/28 12:36:05;;;;;;;28.42;5.18;;;7.50;99.90;;;;;;5036481;28;20131;-72
2022/01/28 12:38:32;;;;;;;23.10;3.97;;;7.60;99.90;;;;;;5020879;28;20523;-71
2022/01/28 12:41:06;;;;;;;20.50;3.90;;;;;;;;;;5015937;28;20037;-71
2022/01/28 12:43:33;;;;;;;17.55;4.78;;;;;;;;;;5015181;28;20446;-71
2022/01/28 12:46:00;;;;;;;20.77;4.82;;;;;;;;;;5015087;28;20095;-72
2022/01/28 12:48:26;;;;;;;17.33;3.83;;;;;;;;;;5016353;28;20041;-71
2022/01/28 12:50:53;;;;;;;24.23;4.03;;;7.60;99.90;;;;;;5015705;28;20048;-71
2022/01/28 12:53:39;;;;;;;22.17;3.03;;;7.70;99.90;;;;;;4999871;28;20069;-71
2022/01/28 12:56:07;;;;;;;17.38;3.40;;;7.70;99.90;;;;;;4999501;28;20048;-71
2022/01/28 12:58:37;;;;;;;23.25;3.35;;;;;;;;;;5015821;28;20037;-71
2022/01/28 13:01:15;;;;;;;18.05;3.17;;;7.60;99.90;;;;;;5015784;28;20550;-71
2022/01/28 13:03:49;;;;;;;18.33;3.25;;;7.70;99.90;;;;;;5016125;28;20045;-71
2022/01/28 13:06:41;;;;;;;13.77;3.42;;;7.50;99.90;;;;;;5003513;28;20034;-71
2022/01/28 13:09:15;;;;;;;19.73;3.72;;;7.30;99.90;;;;;;5022076;22;20052;-68
2022/01/28 13:11:56;;;;;;;17.58;3.63;;;7.40;99.90;;;;;;5011799;28;20046;-67
2022/01/28 13:14:29;;;;;;;23.73;3.35;;;;;;;;;;4996493;28;20490;-69
2022/01/28 13:16:55;;;;;;;23.98;3.80;;;7.50;99.90;;;;;;4995639;28;20050;-68
2022/01/28 13:19:21;;;;;;;20.58;3.95;;;7.60;99.90;;;;;;5009759;28;20108;-68
2022/01/28 13:21:48;;;;;;;26.35;3.95;;;;;;;;;;4992592;28;20038;-68
2022/01/28 13:24:18;;;;;;;12.93;3.03;;;7.70;99.90;;;;;;4992461;28;20370;-70
2022/01/28 13:26:58;;;;;;;13.35;3.25;;;;;;;;;;4992671;28;20073;-70
2022/01/28 13:29:36;;;;;;;23.70;4.28;;;7.70;99.90;;;;;;4993402;28;20197;-68
2022/01/28 13:32:06;;;;;;;17.83;3.30;;;;;;;;;;4992109;28;20459;-68
2022/01/28 13:34:47;;;;;;;15.82;3.15;;;;;;;;;;4993637;28;20035;-68
2022/01/28 13:37:34;;;;;;;24.73;3.38;;;7.80;99.90;;;;;;4992282;28;20047;-68
2022/01/28 13:40:00;;;;;;;14.38;2.22;;;7.70;99.90;;;;;;4992223;28;20053;-69
2022/01/28 13:42:26;;;;;;;16.27;3.45;;;;;;;;;;4992050;28;20035;-68
2022/01/28 13:44:52;;;;;;;15.43;2.97;;;;;;;;;;4992154;28;20129;-68
2022/01/28 13:47:18;;;;;;;21.52;3.92;;;;;;;;;;4992285;28;20612;-68
2022/01/28 13:49:45;;;;;;;21.50;3.17;;;7.50;99.90;;;;;;4991247;28;20042;-69
2022/01/28 13:52:24;;;;;;;20.58;3.28;;;;;;;;;;4995213;28;20038;-68
2022/01/28 13:54:50;;;;;;;18.38;3.55;;;;;;;;;;4995016;28;20041;-68
2022/01/28 13:57:16;;;;;;;12.05;2.72;;;;;;;;;;4995112;28;20128;-69
2022/01/28 13:59:42;;;;;;;14.90;2.83;;;;;;;;;;4994546;28;20072;-69
2022/01/28 14:02:17;;;;;;;24.55;3.17;;;7.50;99.90;;;;;;4995453;28;20372;-68
2022/01/28 14:04:45;;;;;;;13.40;2.05;;;7.60;99.90;;;;;;4994897;28;20034;-69
2022/01/28 14:07:12;;;;;;;12.73;2.67;;;;;;;;;;5021529;28;20083;-68
2022/01/28 14:09:50;;;;;;;26.67;3.35;;;7.40;99.90;;;;;;5023752;28;20536;-68
2022/01/28 14:12:40;;;;;;;18.40;2.75;;;;;;;;;;5024602;28;20053;-68
2022/01/28 14:15:53;;;;;;;13.48;3.17;;;7.40;99.90;;;;;;5024555;28;20508;-68
2022/01/28 14:18:03;;;;;;;13.15;2.25;;;;;;;;;;4988370;28;20124;-68
2022/01/28 14:20:29;;;;;;;13.75;2.67;;;7.20;99.90;;;;;;5024071;28;20064;-68
2022/01/28 14:22:56;;;;;;;12.88;2.13;;;7.30;99.90;;;;;;4991246;28;20030;-69
2022/01/28 14:25:21;;;;;;;13.40;2.92;;;7.50;99.90;;;;;;4991353;28;20045;-68
2022/01/28 14:28:01;;;;;;;14.60;2.35;;;;;;;;;;4992671;28;20042;-68
2022/01/28 14:30:39;;;;;;;16.65;2.60;;;7.20;99.90;;;;;;4992079;28;20053;-68
2022/01/28 14:33:07;;;;;;;20.92;2.97;;;7.50;99.90;;;;;;5024035;28;20039;-68
2022/01/28 14:35:35;;;;;;;15.00;2.80;;;7.20;99.90;;;;;;5001403;28;20042;-68
2022/01/28 14:38:02;;;;;;;11.60;2.42;;;7.50;99.90;;;;;;4994385;28;20050;-68
2022/01/28 14:40:28;;;;;;;13.88;2.53;;;;;;;;;;4994303;28;20042;-68
2022/01/28 14:42:54;;;;;;;21.92;3.13;;;;;;;;;;4993987;28;20042;-68
2022/01/28 14:45:20;;;;;;;19.25;3.83;;;;;;;;;;4993754;28;20534;-68
2022/01/28 14:47:46;;;;;;;14.80;2.50;;;;;;;;;;5011743;28;20042;-68
2022/01/28 14:50:12;;;;;;;19.13;3.40;;;7.40;99.90;;;;;;5011545;28;20128;-68
2022/01/28 14:52:38;;;;;;;14.35;2.42;;;;;;;;;;5009207;28;20073;-68
2022/01/28 14:55:04;;;;;;;17.85;2.72;;;7.30;99.90;;;;;;4993317;28;20117;-68
2022/01/28 14:57:30;;;;;;;12.27;3.60;;;;;;;;;;4993165;28;20054;-68
2022/01/28 14:59:57;;;;;;;15.55;2.42;;;7.40;99.90;;;;;;5010152;28;20044;-68
2022/01/28 15:02:27;;;;;;;15.30;2.80;;;7.20;99.90;;;;;;4994021;28;20053;-68
2022/01/28 15:04:55;;;;;;;11.43;2.50;;;7.30;99.90;;;;;;5011522;28;20041;-68
2022/01/28 15:07:24;;;;;;;11.93;2.58;;;;;;;;;;4994048;28;20082;-68
2022/01/28 15:09:52;;;;;;;14.38;3.33;;;;;;;;;;4993845;28;20456;-68
2022/01/28 15:12:18;;;;;;;9.98;2.50;;;7.20;99.90;;;;;;4993769;28;20046;-68
2022/01/28 15:14:44;;;;;;;16.50;2.47;;;;;;;;;;4993934;28;20392;-69
2022/01/28 15:17:10;;;;;;;14.15;3.53;;;;;;;;;;4993689;28;20137;-70
2022/01/28 15:19:36;;;;;;;14.63;2.13;;;;;;;;;;4993932;28;20125;-70